Time,TemperatureF,DewpointF,PressureIn,WindDirection,WindDirectionDegrees,WindSpeedMPH,WindSpeedGustMPH,Humidity,HourlyPrecipIn,Conditions,Clouds,dailyrainin,SoftwareType,DateUTC
2013-02-25 00:00:00,74.8,66.0,29.56,SSW,202,1.6,1.6,74,0.00,,---,0.00,VWS V13.01,2013-02-25 05:00:00,
2013-02-25 00:05:00,74.8,66.0,29.56,South,180,1.6,1.8,74,0.00,,---,0.00,VWS V13.01,2013-02-25 05:05:00,
2013-02-25 00:15:00,74.7,65.8,29.55,SSW,202,0.7,0.9,74,0.00,,---,0.00,VWS V13.01,2013-02-25 05:15:00,
2013-02-25 00:25:00,74.5,65.7,29.55,SW,225,3.6,3.6,74,0.00,,---,0.00,VWS V13.01,2013-02-25 05:25:00,
2013-02-25 00:30:00,74.5,65.7,29.56,SW,225,0.0,3.6,74,0.00,,---,0.00,VWS V13.01,2013-02-25 05:30:00,
2013-02-25 00:40:00,74.3,65.5,29.56,SW,225,0.0,0.0,74,0.00,,---,0.00,VWS V13.01,2013-02-25 05:40:00,
2013-02-25 00:50:00,74.3,65.5,29.55,SW,225,0.0,0.0,74,0.00,,---,0.00,VWS V13.01,2013-02-25 05:50:00,
2013-02-25 01:00:00,74.1,65.3,29.55,SSW,202,0.0,0.4,74,0.00,,---,0.00,VWS V13.01,2013-02-25 06:00:00,
2013-02-25 01:10:00,74.1,65.3,29.56,SSW,202,11.6,11.6,74,0.00,,---,0.00,VWS V13.01,2013-02-25 06:10:00,
2013-02-25 01:20:00,73.9,65.1,29.55,SSW,202,0.0,0.0,74,0.00,,---,0.00,VWS V13.01,2013-02-25 06:20:00,
2013-02-25 01:30:00,73.9,65.1,29.55,SSW,202,0.0,19.5,74,0.00,,---,0.00,VWS V13.01,2013-02-25 06:30:00,
2013-02-25 01:40:00,73.8,65.0,29.54,SSW,202,21.5,21.5,74,0.00,,---,0.00,VWS V13.01,2013-02-25 06:40:00,
2013-02-25 01:50:00,73.6,64.8,29.54,SSW,202,0.0,0.0,74,0.00,,---,0.00,VWS V13.01,2013-02-25 06:50:00,
2013-02-25 02:00:00,73.2,64.4,29.54,SSW,202,0.0,15.7,74,0.00,,---,0.00,VWS V13.01,2013-02-25 07:00:00,
2013-02-25 02:10:00,73.2,64.8,29.54,SSW,202,16.3,18.3,75,0.00,,---,0.00,VWS V13.01,2013-02-25 07:10:00,
2013-02-25 02:15:00,73.0,64.7,29.53,SSW,202,20.4,20.8,75,0.00,,---,0.00,VWS V13.01,2013-02-25 07:15:00,
2013-02-25 02:25:00,72.9,64.5,29.52,SSW,202,0.0,114.1,75,0.00,,---,0.00,VWS V13.01,2013-02-25 07:25:00,
2013-02-25 02:35:00,72.7,64.3,29.52,SSW,202,0.0,22.4,75,0.00,,---,0.00,VWS V13.01,2013-02-25 07:35:00,
2013-02-25 02:45:00,72.7,64.7,29.52,SSW,202,0.0,17.7,76,0.00,,---,0.00,VWS V13.01,2013-02-25 07:45:00,
2013-02-25 02:55:00,72.5,64.5,29.52,SSW,202,17.2,17.2,76,0.00,,---,0.00,VWS V13.01,2013-02-25 07:55:00,
2013-02-25 03:00:00,72.5,64.5,29.52,SSW,202,17.2,17.2,76,0.00,,---,0.00,VWS V13.01,2013-02-25 08:00:00,
2013-02-25 03:10:00,72.3,64.3,29.52,SSW,202,0.0,17.9,76,0.00,,---,0.00,VWS V13.01,2013-02-25 08:10:00,
2013-02-25 03:15:00,72.3,64.3,29.51,SSW,202,0.0,0.0,76,0.00,,---,0.00,VWS V13.01,2013-02-25 08:15:00,
2013-02-25 03:25:00,72.3,64.3,29.52,SSW,202,18.8,18.8,76,0.00,,---,0.00,VWS V13.01,2013-02-25 08:25:00,
2013-02-25 03:35:00,72.1,64.2,29.52,SSW,202,0.0,17.7,76,0.00,,---,0.00,VWS V13.01,2013-02-25 08:35:00,
2013-02-25 03:45:00,72.1,64.2,29.52,SSW,202,13.2,19.2,76,0.00,,---,0.00,VWS V13.01,2013-02-25 08:45:00,
2013-02-25 03:50:00,72.0,64.0,29.52,SSW,202,16.8,16.8,76,0.00,,---,0.00,VWS V13.01,2013-02-25 08:50:00,
2013-02-25 04:00:00,72.0,64.0,29.51,SSW,202,19.0,19.5,76,0.00,,---,0.00,VWS V13.01,2013-02-25 09:00:00,
2013-02-25 04:10:00,72.0,64.4,29.51,SSW,202,0.0,19.0,77,0.00,,---,0.00,VWS V13.01,2013-02-25 09:10:00,
2013-02-25 04:20:00,72.0,64.4,29.51,SSW,202,17.5,17.5,77,0.00,,---,0.00,VWS V13.01,2013-02-25 09:20:00,
2013-02-25 04:25:00,72.0,64.4,29.51,SSW,202,0.0,17.5,77,0.00,,---,0.00,VWS V13.01,2013-02-25 09:25:00,
2013-02-25 04:35:00,72.0,64.4,29.52,SSW,202,0.0,22.8,77,0.00,,---,0.00,VWS V13.01,2013-02-25 09:35:00,
2013-02-25 04:45:00,72.1,64.5,29.52,SSW,202,17.0,17.0,77,0.00,,---,0.00,VWS V13.01,2013-02-25 09:45:00,
2013-02-25 04:55:00,72.0,64.4,29.52,SSW,202,17.0,18.1,77,0.00,,---,0.00,VWS V13.01,2013-02-25 09:55:00,
2013-02-25 05:00:00,72.0,64.4,29.52,SSW,202,19.9,19.9,77,0.00,,---,0.00,VWS V13.01,2013-02-25 10:00:00,
2013-02-25 05:10:00,71.8,64.2,29.51,SSW,202,0.0,0.0,77,0.00,,---,0.00,VWS V13.01,2013-02-25 10:10:00,
2013-02-25 05:20:00,71.8,64.2,29.52,SSW,202,20.1,20.1,77,0.00,,---,0.00,VWS V13.01,2013-02-25 10:20:00,
2013-02-25 05:30:00,71.4,63.8,29.51,SSW,202,16.6,17.7,77,0.00,,---,0.00,VWS V13.01,2013-02-25 10:30:00,
2013-02-25 05:35:00,71.4,63.8,29.52,SSW,202,19.7,19.7,77,0.00,,---,0.00,VWS V13.01,2013-02-25 10:35:00,
2013-02-25 05:45:00,71.2,64.0,29.52,SSW,202,0.0,19.7,78,0.00,,---,0.00,VWS V13.01,2013-02-25 10:45:00,
2013-02-25 05:55:00,71.2,64.0,29.52,SSW,202,20.6,20.6,78,0.00,,---,0.00,VWS V13.01,2013-02-25 10:55:00,
2013-02-25 06:00:00,71.2,64.0,29.52,SSW,202,20.6,20.6,78,0.00,,---,0.00,VWS V13.01,2013-02-25 11:00:00,
2013-02-25 06:10:00,70.9,63.7,29.52,SSW,202,17.7,17.7,78,0.00,,---,0.00,VWS V13.01,2013-02-25 11:10:00,
2013-02-25 06:15:00,70.9,63.7,29.52,SSW,202,15.9,17.7,78,0.00,,---,0.00,VWS V13.01,2013-02-25 11:15:00,
2013-02-25 06:25:00,70.9,63.7,29.52,SSW,202,18.6,18.6,78,0.00,,---,0.00,VWS V13.01,2013-02-25 11:25:00,
2013-02-25 06:35:00,70.9,63.7,29.52,SSW,202,0.0,20.8,78,0.00,,---,0.00,VWS V13.01,2013-02-25 11:35:00,
2013-02-25 06:40:00,70.9,63.7,29.52,SSW,202,21.3,21.3,78,0.00,,---,0.00,VWS V13.01,2013-02-25 11:40:00,
2013-02-25 06:50:00,71.2,64.4,29.52,South,180,17.0,21.3,79,0.00,,---,0.00,VWS V13.01,2013-02-25 11:50:00,
2013-02-25 07:00:00,71.4,64.9,29.53,South,180,0.0,17.0,80,0.00,,---,0.00,VWS V13.01,2013-02-25 12:00:00,
2013-02-25 07:10:00,71.4,64.9,29.53,South,180,0.0,0.0,80,0.00,,---,0.00,VWS V13.01,2013-02-25 12:10:00,
2013-02-25 07:20:00,71.8,65.3,29.53,South,180,0.0,0.0,80,0.00,,---,0.00,VWS V13.01,2013-02-25 12:20:00,
2013-02-25 07:25:00,72.3,65.8,29.53,South,180,0.0,0.0,80,0.00,,---,0.00,VWS V13.01,2013-02-25 12:25:00,
2013-02-25 07:35:00,72.9,66.3,29.53,South,180,0.0,0.4,80,0.00,,---,0.00,VWS V13.01,2013-02-25 12:35:00,
2013-02-25 07:40:00,73.2,66.7,29.53,South,180,1.1,1.1,80,0.00,,---,0.00,VWS V13.01,2013-02-25 12:40:00,
2013-02-25 07:50:00,74.1,67.6,29.53,South,180,2.0,2.0,80,0.00,,---,0.00,VWS V13.01,2013-02-25 12:50:00,
2013-02-25 07:55:00,74.5,68.3,29.54,South,180,3.4,3.4,81,0.00,,---,0.00,VWS V13.01,2013-02-25 12:55:00,
2013-02-25 08:05:00,75.7,69.1,29.54,South,180,4.0,4.0,80,0.00,,---,0.00,VWS V13.01,2013-02-25 13:05:00,
2013-02-25 08:10:00,75.9,68.9,29.54,South,180,3.6,4.0,79,0.00,,---,0.00,VWS V13.01,2013-02-25 13:10:00,
2013-02-25 08:20:00,76.3,69.3,29.55,South,180,2.9,3.6,79,0.00,,---,0.00,VWS V13.01,2013-02-25 13:20:00,
2013-02-25 08:30:00,76.5,69.1,29.55,SSW,202,2.7,5.1,78,0.00,,---,0.00,VWS V13.01,2013-02-25 13:30:00,
2013-02-25 08:40:00,76.8,69.4,29.56,South,180,4.5,7.4,78,0.00,,---,0.00,VWS V13.01,2013-02-25 13:40:00,
2013-02-25 08:50:00,77.5,69.8,29.56,SSE,158,2.5,5.6,77,0.00,,---,0.00,VWS V13.01,2013-02-25 13:50:00,
2013-02-25 09:00:00,78.6,70.8,29.56,SSE,158,2.7,6.3,77,0.00,,---,0.00,VWS V13.01,2013-02-25 14:00:00,
2013-02-25 09:10:00,79.0,70.4,29.56,South,180,1.8,8.1,75,0.00,,---,0.00,VWS V13.01,2013-02-25 14:10:00,
2013-02-25 09:15:00,79.0,70.4,29.56,SE,135,0.0,11.9,75,0.00,,---,0.00,VWS V13.01,2013-02-25 14:15:00,
2013-02-25 09:25:00,79.9,70.9,29.56,South,180,8.5,8.5,74,0.00,,---,0.00,VWS V13.01,2013-02-25 14:25:00,
2013-02-25 09:30:00,79.9,70.5,29.55,SSE,158,3.8,8.5,73,0.00,,---,0.00,VWS V13.01,2013-02-25 14:30:00,
2013-02-25 09:40:00,79.9,70.5,29.56,South,180,7.4,7.4,73,0.00,,---,0.00,VWS V13.01,2013-02-25 14:40:00,
2013-02-25 09:50:00,80.2,70.8,29.56,SSW,202,6.7,6.7,73,0.00,,---,0.00,VWS V13.01,2013-02-25 14:50:00,
2013-02-25 10:00:00,81.1,71.3,29.55,SSE,158,12.3,12.3,72,0.00,,---,0.00,VWS V13.01,2013-02-25 15:00:00,
2013-02-25 10:10:00,81.7,71.4,29.55,SSE,158,10.5,10.5,71,0.00,,---,0.00,VWS V13.01,2013-02-25 15:10:00,
2013-02-25 10:20:00,82.4,71.6,29.55,SE,135,10.1,10.1,70,0.00,,---,0.00,VWS V13.01,2013-02-25 15:20:00,
2013-02-25 10:25:00,82.4,71.6,29.55,SE,135,10.1,10.1,70,0.00,,---,0.00,VWS V13.01,2013-02-25 15:25:00,
2013-02-25 10:35:00,82.9,71.3,29.56,South,180,12.1,12.1,68,0.00,,---,0.00,VWS V13.01,2013-02-25 15:35:00,
2013-02-25 10:40:00,82.9,71.3,29.56,SSE,158,2.7,12.1,68,0.00,,---,0.00,VWS V13.01,2013-02-25 15:40:00,
2013-02-25 10:50:00,83.5,71.4,29.56,SE,135,6.7,6.7,67,0.00,,---,0.00,VWS V13.01,2013-02-25 15:50:00,
2013-02-25 11:00:00,84.0,71.4,29.55,SSE,158,6.0,10.7,66,0.00,,---,0.00,VWS V13.01,2013-02-25 16:00:00,
2013-02-25 11:10:00,84.6,72.0,29.55,SW,225,7.8,10.3,66,0.00,,---,0.00,VWS V13.01,2013-02-25 16:10:00,
2013-02-25 11:20:00,84.4,71.8,29.55,SE,135,6.9,11.6,66,0.00,,---,0.00,VWS V13.01,2013-02-25 16:20:00,
2013-02-25 11:25:00,84.4,72.2,29.54,SSE,158,12.1,12.1,67,0.00,,---,0.00,VWS V13.01,2013-02-25 16:25:00,
2013-02-25 11:35:00,84.0,71.4,29.54,WSW,248,7.4,13.4,66,0.00,,---,0.00,VWS V13.01,2013-02-25 16:35:00,
2013-02-25 11:40:00,84.2,71.6,29.54,WSW,248,7.4,7.4,66,0.00,,---,0.00,VWS V13.01,2013-02-25 16:40:00,
2013-02-25 11:50:00,83.8,71.7,29.54,SSE,158,8.3,8.3,67,0.00,,---,0.00,VWS V13.01,2013-02-25 16:50:00,
2013-02-25 12:00:00,83.5,71.8,29.54,SE,135,7.2,10.3,68,0.00,,---,0.00,VWS V13.01,2013-02-25 17:00:00,
2013-02-25 12:10:00,83.8,71.7,29.53,SE,135,3.8,17.5,67,0.00,,---,0.00,VWS V13.01,2013-02-25 17:10:00,
2013-02-25 12:20:00,84.9,72.3,29.53,South,180,17.5,17.5,66,0.00,,---,0.00,VWS V13.01,2013-02-25 17:20:00,
2013-02-25 12:30:00,84.4,71.3,29.52,SW,225,9.2,10.7,65,0.00,,---,0.00,VWS V13.01,2013-02-25 17:30:00,
2013-02-25 12:35:00,84.0,71.4,29.52,South,180,6.5,9.2,66,0.00,,---,0.00,VWS V13.01,2013-02-25 17:35:00,
2013-02-25 12:45:00,84.4,71.8,29.51,South,180,6.5,6.5,66,0.00,,---,0.00,VWS V13.01,2013-02-25 17:45:00,
2013-02-25 12:50:00,84.4,71.8,29.51,SSE,158,11.0,11.0,66,0.00,,---,0.00,VWS V13.01,2013-02-25 17:50:00,
2013-02-25 13:00:00,84.0,71.4,29.51,East,90,7.2,11.9,66,0.00,,---,0.00,VWS V13.01,2013-02-25 18:00:00,
2013-02-25 13:05:00,83.8,71.7,29.51,SSE,158,17.7,17.7,67,0.00,,---,0.00,VWS V13.01,2013-02-25 18:05:00,
2013-02-25 13:15:00,84.7,72.6,29.50,SSE,158,6.9,9.4,67,0.00,,---,0.00,VWS V13.01,2013-02-25 18:15:00,
2013-02-25 13:25:00,85.1,72.5,29.50,South,180,7.4,8.3,66,0.00,,---,0.00,VWS V13.01,2013-02-25 18:25:00,
2013-02-25 13:35:00,84.7,72.1,29.50,South,180,12.1,12.1,66,0.00,,---,0.00,VWS V13.01,2013-02-25 18:35:00,
2013-02-25 13:40:00,84.0,71.4,29.49,SSE,158,8.3,12.1,66,0.00,,---,0.00,VWS V13.01,2013-02-25 18:40:00,
2013-02-25 13:50:00,84.0,72.3,29.49,SSW,202,13.0,13.0,68,0.00,,---,0.00,VWS V13.01,2013-02-25 18:50:00,
2013-02-25 13:55:00,82.2,70.6,29.49,South,180,10.5,13.0,68,0.00,,---,0.00,VWS V13.01,2013-02-25 18:55:00,
2013-02-25 14:05:00,82.0,70.4,29.49,South,180,3.6,7.8,68,0.00,,---,0.00,VWS V13.01,2013-02-25 19:05:00,
2013-02-25 14:15:00,81.3,70.2,29.49,SSE,158,7.4,11.2,69,0.00,,---,0.00,VWS V13.01,2013-02-25 19:15:00,
2013-02-25 14:25:00,80.6,69.9,29.48,SSW,202,6.5,12.8,70,0.00,,---,0.00,VWS V13.01,2013-02-25 19:25:00,
2013-02-25 14:35:00,80.2,69.6,29.48,South,180,7.6,7.6,70,0.00,,---,0.00,VWS V13.01,2013-02-25 19:35:00,
2013-02-25 14:45:00,80.2,70.0,29.48,ESE,112,8.7,8.7,71,0.00,,---,0.00,VWS V13.01,2013-02-25 19:45:00,
2013-02-25 14:55:00,79.9,69.6,29.48,SW,225,15.4,15.4,71,0.00,,---,0.00,VWS V13.01,2013-02-25 19:55:00,
2013-02-25 15:05:00,79.5,69.3,29.48,ESE,112,5.8,9.0,71,0.00,,---,0.00,VWS V13.01,2013-02-25 20:05:00,
2013-02-25 15:10:00,79.5,69.7,29.48,SSW,202,9.2,11.6,72,0.00,,---,0.00,VWS V13.01,2013-02-25 20:10:00,
2013-02-25 15:20:00,79.3,69.5,29.48,SW,225,9.2,9.2,72,0.00,,---,0.00,VWS V13.01,2013-02-25 20:20:00,
2013-02-25 15:30:00,79.2,68.9,29.47,East,90,10.1,12.5,71,0.00,,---,0.00,VWS V13.01,2013-02-25 20:30:00,
2013-02-25 15:35:00,79.0,69.2,29.47,SW,225,6.5,15.2,72,0.00,,---,0.00,VWS V13.01,2013-02-25 20:35:00,
2013-02-25 15:45:00,79.0,69.6,29.47,South,180,5.6,14.5,73,0.00,,---,0.00,VWS V13.01,2013-02-25 20:45:00,
2013-02-25 15:55:00,78.6,69.7,29.47,South,180,4.3,11.9,74,0.00,,---,0.00,VWS V13.01,2013-02-25 20:55:00,
2013-02-25 16:00:00,78.6,69.7,29.46,SSE,158,9.0,9.0,74,0.00,,---,0.00,VWS V13.01,2013-02-25 21:00:00,
2013-02-25 16:10:00,78.6,69.7,29.47,WSW,248,13.9,13.9,74,0.00,,---,0.00,VWS V13.01,2013-02-25 21:10:00,
2013-02-25 16:20:00,79.9,70.1,29.47,WSW,248,7.2,14.5,72,0.00,,---,0.00,VWS V13.01,2013-02-25 21:20:00,
2013-02-25 16:30:00,80.4,70.2,29.46,WSW,248,13.9,13.9,71,0.00,,---,0.00,VWS V13.01,2013-02-25 21:30:00,
2013-02-25 16:40:00,81.3,70.2,29.47,SSW,202,11.0,11.0,69,0.00,,---,0.00,VWS V13.01,2013-02-25 21:40:00,
2013-02-25 16:50:00,81.3,70.2,29.47,WSW,248,4.7,9.0,69,0.00,,---,0.00,VWS V13.01,2013-02-25 21:50:00,
2013-02-25 17:00:00,81.3,70.2,29.47,SSW,202,6.9,8.7,69,0.00,,---,0.00,VWS V13.01,2013-02-25 22:00:00,
2013-02-25 17:05:00,81.3,70.2,29.47,WSW,248,11.6,11.6,69,0.00,,---,0.00,VWS V13.01,2013-02-25 22:05:00,
2013-02-25 17:10:00,81.1,70.0,29.47,South,180,7.4,11.6,69,0.00,,---,0.00,VWS V13.01,2013-02-25 22:10:00,
2013-02-25 17:20:00,80.6,69.5,29.47,WSW,248,2.0,8.3,69,0.00,,---,0.00,VWS V13.01,2013-02-25 22:20:00,
2013-02-25 17:30:00,81.0,69.8,29.47,WSW,248,8.7,15.7,69,0.00,,---,0.00,VWS V13.01,2013-02-25 22:30:00,
2013-02-25 17:40:00,81.0,69.8,29.47,South,180,11.6,11.6,69,0.00,,---,0.00,VWS V13.01,2013-02-25 22:40:00,
2013-02-25 17:50:00,80.4,69.3,29.47,South,180,10.5,11.2,69,0.00,,---,0.00,VWS V13.01,2013-02-25 22:50:00,
2013-02-25 18:00:00,79.9,69.2,29.47,SSE,158,5.4,7.4,70,0.00,,---,0.00,VWS V13.01,2013-02-25 23:00:00,
2013-02-25 18:05:00,79.5,68.9,29.47,ESE,112,9.6,9.6,70,0.00,,---,0.00,VWS V13.01,2013-02-25 23:05:00,
2013-02-25 18:10:00,79.0,68.8,29.47,SSW,202,15.0,15.0,71,0.00,,---,0.00,VWS V13.01,2013-02-25 23:10:00,
2013-02-25 18:20:00,78.6,68.8,29.47,South,180,6.0,15.0,72,0.00,,---,0.00,VWS V13.01,2013-02-25 23:20:00,
2013-02-25 18:25:00,78.4,68.7,29.47,SSE,158,4.0,9.6,72,0.00,,---,0.00,VWS V13.01,2013-02-25 23:25:00,
2013-02-25 18:35:00,78.1,68.7,29.48,South,180,7.8,8.1,73,0.00,,---,0.00,VWS V13.01,2013-02-25 23:35:00,
2013-02-25 18:40:00,77.9,68.9,29.48,SW,225,9.0,9.0,74,0.00,,---,0.00,VWS V13.01,2013-02-25 23:40:00,
2013-02-25 18:50:00,77.7,68.8,29.47,SW,225,8.7,8.7,74,0.00,,---,0.00,VWS V13.01,2013-02-25 23:50:00,
2013-02-25 18:55:00,77.7,68.8,29.48,SE,135,6.0,12.5,74,0.00,,---,0.00,VWS V13.01,2013-02-25 23:55:00,
2013-02-25 19:05:00,77.5,69.0,29.48,SSE,158,9.0,13.2,75,0.00,,---,0.00,VWS V13.01,2013-02-26 00:05:00,
2013-02-25 19:10:00,77.4,68.8,29.48,South,180,9.2,9.2,75,0.00,,---,0.00,VWS V13.01,2013-02-26 00:10:00,
2013-02-25 19:20:00,77.4,68.8,29.48,SSE,158,0.7,0.7,75,0.00,,---,0.00,VWS V13.01,2013-02-26 00:20:00,
2013-02-25 19:30:00,77.2,68.7,29.49,SSW,202,2.9,9.6,75,0.00,,---,0.00,VWS V13.01,2013-02-26 00:30:00,
2013-02-25 19:40:00,77.2,68.7,29.49,South,180,3.6,3.6,75,0.00,,---,0.00,VWS V13.01,2013-02-26 00:40:00,
2013-02-25 19:50:00,77.0,68.5,29.49,South,180,4.0,7.6,75,0.00,,---,0.00,VWS V13.01,2013-02-26 00:50:00,
2013-02-25 20:00:00,76.8,68.7,29.50,South,180,1.8,4.9,76,0.00,,---,0.00,VWS V13.01,2013-02-26 01:00:00,
2013-02-25 20:10:00,76.8,68.7,29.50,SE,135,1.1,1.1,76,0.00,,---,0.00,VWS V13.01,2013-02-26 01:10:00,
2013-02-25 20:20:00,76.8,68.7,29.50,South,180,8.1,8.1,76,0.00,,---,0.00,VWS V13.01,2013-02-26 01:20:00,
2013-02-25 20:25:00,76.6,68.5,29.50,SSW,202,3.8,8.1,76,0.00,,---,0.00,VWS V13.01,2013-02-26 01:25:00,
2013-02-25 20:35:00,76.6,68.9,29.50,South,180,1.6,7.4,77,0.00,,---,0.00,VWS V13.01,2013-02-26 01:35:00,
2013-02-25 20:45:00,76.6,68.9,29.50,South,180,3.1,6.9,77,0.00,,---,0.00,VWS V13.01,2013-02-26 01:45:00,
2013-02-25 20:55:00,76.6,68.9,29.50,South,180,1.8,8.7,77,0.00,,---,0.00,VWS V13.01,2013-02-26 01:55:00,
2013-02-25 21:05:00,76.6,68.9,29.50,SSE,158,4.3,4.3,77,0.00,,---,0.00,VWS V13.01,2013-02-26 02:05:00,
2013-02-25 21:10:00,76.6,68.9,29.50,South,180,4.0,4.3,77,0.00,,---,0.00,VWS V13.01,2013-02-26 02:10:00,
2013-02-25 21:20:00,76.5,68.7,29.51,South,180,8.5,8.5,77,0.00,,---,0.00,VWS V13.01,2013-02-26 02:20:00,
2013-02-25 21:30:00,76.5,68.7,29.50,South,180,1.3,1.3,77,0.00,,---,0.00,VWS V13.01,2013-02-26 02:30:00,
2013-02-25 21:40:00,76.3,68.9,29.50,South,180,2.7,5.4,78,0.00,,---,0.00,VWS V13.01,2013-02-26 02:40:00,
2013-02-25 21:45:00,76.3,68.6,29.50,SSE,158,3.1,3.1,77,0.00,,---,0.00,VWS V13.01,2013-02-26 02:45:00,
2013-02-25 21:55:00,76.3,68.6,29.50,SSW,202,3.8,6.5,77,0.00,,---,0.00,VWS V13.01,2013-02-26 02:55:00,
2013-02-25 22:00:00,76.3,68.6,29.50,SSE,158,0.9,4.7,77,0.00,,---,0.00,VWS V13.01,2013-02-26 03:00:00,
2013-02-25 22:10:00,76.3,68.6,29.50,South,180,7.8,7.8,77,0.00,,---,0.00,VWS V13.01,2013-02-26 03:10:00,
2013-02-25 22:15:00,76.3,68.6,29.50,SSW,202,0.4,7.8,77,0.00,,---,0.00,VWS V13.01,2013-02-26 03:15:00,
2013-02-25 22:25:00,76.1,68.4,29.50,SE,135,0.4,6.7,77,0.00,,---,0.00,VWS V13.01,2013-02-26 03:25:00,
2013-02-25 22:30:00,76.1,68.4,29.50,SE,135,0.4,0.4,77,0.00,,---,0.00,VWS V13.01,2013-02-26 03:30:00,
2013-02-25 22:40:00,76.1,68.4,29.50,SSE,158,4.0,4.3,77,0.00,,---,0.00,VWS V13.01,2013-02-26 03:40:00,
2013-02-25 22:45:00,76.1,68.4,29.49,South,180,2.0,4.0,77,0.00,,---,0.00,VWS V13.01,2013-02-26 03:45:00,
2013-02-25 22:55:00,76.1,68.8,29.49,South,180,6.7,6.7,78,0.00,,---,0.00,VWS V13.01,2013-02-26 03:55:00,
2013-02-25 23:00:00,76.1,68.8,29.50,SSE,158,2.0,6.7,78,0.00,,---,0.00,VWS V13.01,2013-02-26 04:00:00,
2013-02-25 23:10:00,75.9,68.6,29.50,SSE,158,5.6,5.6,78,0.00,,---,0.00,VWS V13.01,2013-02-26 04:10:00,
2013-02-25 23:20:00,75.9,68.6,29.49,SSE,158,7.2,7.2,78,0.00,,---,0.00,VWS V13.01,2013-02-26 04:20:00,
2013-02-25 23:30:00,75.9,68.6,29.50,South,180,7.6,7.6,78,0.00,,---,0.00,VWS V13.01,2013-02-26 04:30:00,
2013-02-25 23:35:00,75.9,68.6,29.50,SSE,158,5.6,7.6,78,0.00,,---,0.00,VWS V13.01,2013-02-26 04:35:00,
2013-02-25 23:40:00,75.9,68.6,29.50,SSE,158,5.8,5.8,78,0.00,,---,0.00,VWS V13.01,2013-02-26 04:40:00,
2013-02-25 23:50:00,75.9,68.2,29.50,SSE,158,6.3,6.3,77,0.00,,---,0.00,VWS V13.01,2013-02-26 04:50:00,